createdAt,value
2018-06-25T00:00:19.614Z,95.10
2018-06-25T00:02:48.046Z,95.00
2018-06-25T00:05:16.464Z,94.90
2018-06-25T00:07:44.888Z,95.10
2018-06-25T00:10:13.345Z,95.10
2018-06-25T00:12:41.744Z,95.20
2018-06-25T00:15:10.167Z,95.20
2018-06-25T00:17:38.600Z,95.40
2018-06-25T00:20:07.056Z,95.40
2018-06-25T00:22:35.684Z,95.60
2018-06-25T00:25:04.377Z,95.50
2018-06-25T00:27:32.798Z,95.50
2018-06-25T00:30:01.265Z,95.60
2018-06-25T00:32:29.669Z,95.70
2018-06-25T00:34:58.222Z,95.70
2018-06-25T00:37:26.662Z,95.60
2018-06-25T00:39:55.081Z,95.30
2018-06-25T00:42:23.527Z,95.30
2018-06-25T00:44:51.961Z,95.30
2018-06-25T00:47:20.389Z,95.30
2018-06-25T00:49:49.853Z,95.20
2018-06-25T00:52:18.337Z,95.10
2018-06-25T00:54:46.806Z,94.90
2018-06-25T00:57:15.231Z,95.10
2018-06-25T00:59:51.015Z,95.10
2018-06-25T01:02:19.881Z,95.10
2018-06-25T01:04:48.324Z,95.20
2018-06-25T01:07:17.347Z,95.10
2018-06-25T01:09:45.797Z,95.00
2018-06-25T01:12:14.678Z,95.00
2018-06-25T01:14:43.612Z,94.90
2018-06-25T01:17:12.045Z,94.90
2018-06-25T01:19:40.539Z,95.00
2018-06-25T01:22:10.127Z,95.00
2018-06-25T01:24:39.024Z,94.90
2018-06-25T01:27:08.582Z,94.90
2018-06-25T01:29:38.018Z,94.90
2018-06-25T01:32:06.505Z,94.90
2018-06-25T01:34:35.353Z,94.90
2018-06-25T01:37:04.153Z,95.00
2018-06-25T01:39:32.682Z,95.00
2018-06-25T01:42:01.205Z,94.90
2018-06-25T01:44:29.789Z,94.90
2018-06-25T01:46:58.508Z,94.70
2018-06-25T01:49:26.969Z,94.50
2018-06-25T01:51:55.680Z,94.50
2018-06-25T01:54:24.112Z,94.70
2018-06-25T01:56:52.561Z,94.70
2018-06-25T01:59:21.028Z,94.80
2018-06-25T02:01:49.435Z,94.80
2018-06-25T02:04:17.857Z,94.90
2018-06-25T02:06:46.263Z,95.00
2018-06-25T02:09:14.709Z,95.10
2018-06-25T02:11:43.151Z,95.20
2018-06-25T02:14:11.578Z,95.20
2018-06-25T02:16:40.090Z,95.30
2018-06-25T02:19:08.696Z,95.10
2018-06-25T02:21:37.096Z,94.80
2018-06-25T02:24:05.702Z,94.80
2018-06-25T02:26:34.347Z,94.90
2018-06-25T02:29:02.757Z,94.90
2018-06-25T02:31:31.197Z,94.70
2018-06-25T02:33:59.609Z,94.90
2018-06-25T02:36:28.035Z,95.10
2018-06-25T02:38:56.461Z,95.20
2018-06-25T02:41:25.268Z,95.20
2018-06-25T02:43:53.901Z,95.20
2018-06-25T02:46:22.288Z,95.10
2018-06-25T02:48:50.684Z,95.00
2018-06-25T02:51:19.100Z,95.10
2018-06-25T02:53:47.505Z,95.00
2018-06-25T02:56:15.987Z,94.90
2018-06-25T02:58:44.372Z,94.90
2018-06-25T03:01:12.872Z,94.80
2018-06-25T03:03:41.305Z,94.90
2018-06-25T03:06:09.689Z,94.70
2018-06-25T03:08:38.309Z,94.80
2018-06-25T03:11:06.872Z,94.90
2018-06-25T03:13:35.323Z,95.00
2018-06-25T03:16:03.812Z,94.90
2018-06-25T03:18:32.187Z,94.70
2018-06-25T03:21:00.612Z,94.70
2018-06-25T03:23:29.024Z,94.70
2018-06-25T03:25:57.421Z,94.70
2018-06-25T03:28:25.900Z,94.70
2018-06-25T03:30:54.276Z,94.70
2018-06-25T03:33:22.696Z,94.70
2018-06-25T03:35:51.647Z,94.60
2018-06-25T03:38:20.116Z,95.00
2018-06-25T03:40:48.659Z,95.20
2018-06-25T03:43:17.104Z,95.30
2018-06-25T03:45:45.703Z,95.20
2018-06-25T03:48:14.200Z,95.40
2018-06-25T03:50:42.594Z,95.70
2018-06-25T03:53:11.015Z,95.30
2018-06-25T03:55:39.409Z,95.00
2018-06-25T03:58:08.524Z,94.90
2018-06-25T04:00:37.130Z,94.50
2018-06-25T04:03:05.573Z,94.50
2018-06-25T04:05:34.009Z,94.60
2018-06-25T04:08:02.392Z,94.50
2018-06-25T04:10:30.890Z,94.30
2018-06-25T04:12:59.300Z,94.10
2018-06-25T04:15:27.725Z,93.80
2018-06-25T04:17:56.131Z,93.80
2018-06-25T04:20:25.059Z,93.70
2018-06-25T04:22:53.457Z,93.40
2018-06-25T04:25:21.861Z,93.30
2018-06-25T04:27:50.314Z,93.00
2018-06-25T04:30:18.748Z,93.00
2018-06-25T04:32:47.145Z,92.80
2018-06-25T04:35:15.837Z,92.70
2018-06-25T04:37:44.457Z,92.90
2018-06-25T04:40:13.021Z,93.00
2018-06-25T04:42:41.793Z,92.90
2018-06-25T04:45:10.343Z,92.80
2018-06-25T04:47:39.044Z,92.70
2018-06-25T04:50:07.663Z,92.50
2018-06-25T04:52:36.338Z,92.50
2018-06-25T04:55:05.057Z,92.60
2018-06-25T04:57:33.676Z,92.60
2018-06-25T05:00:02.178Z,92.40
2018-06-25T05:02:30.996Z,92.30
2018-06-25T05:04:59.526Z,91.90
2018-06-25T05:07:28.169Z,91.80
2018-06-25T05:09:57.010Z,91.60
2018-06-25T05:12:25.611Z,91.70
2018-06-25T05:14:54.338Z,91.70
2018-06-25T05:17:23.105Z,91.30
2018-06-25T05:19:51.720Z,91.00
2018-06-25T05:22:20.294Z,90.60
2018-06-25T05:24:48.832Z,90.00
2018-06-25T05:27:17.707Z,89.50
2018-06-25T05:29:46.562Z,88.70
2018-06-25T05:32:15.208Z,88.30
2018-06-25T05:34:43.826Z,87.80
2018-06-25T05:37:12.533Z,87.70
2018-06-25T05:39:41.283Z,87.30
2018-06-25T05:42:14.195Z,86.20
2018-06-25T05:44:43.046Z,86.10
2018-06-25T05:47:11.623Z,86.30
2018-06-25T05:49:40.442Z,86.60
2018-06-25T05:52:09.093Z,86.50
2018-06-25T05:54:37.713Z,86.50
2018-06-25T05:57:06.431Z,87.10
2018-06-25T05:59:35.995Z,88.20
2018-06-25T06:02:05.072Z,88.00
2018-06-25T06:04:33.721Z,88.20
2018-06-25T06:07:02.488Z,88.10
2018-06-25T06:09:32.262Z,87.90
2018-06-25T06:12:00.912Z,88.40
2018-06-25T06:14:29.575Z,88.20
2018-06-25T06:16:59.454Z,88.40
2018-06-25T06:19:28.238Z,89.30
2018-06-25T06:21:57.098Z,89.00
2018-06-25T06:24:26.479Z,88.90
2018-06-25T06:26:55.748Z,88.50
2018-06-25T06:29:25.177Z,88.80
2018-06-25T06:31:54.408Z,89.10
2018-06-25T06:34:23.746Z,89.60
2018-06-25T06:36:53.364Z,90.00
2018-06-25T06:39:22.644Z,90.10
2018-06-25T06:41:52.648Z,89.60
2018-06-25T06:44:21.578Z,88.40
2018-06-25T06:46:50.641Z,88.40
2018-06-25T06:49:19.760Z,87.80
2018-06-25T06:51:48.717Z,87.50
2018-06-25T06:54:17.777Z,86.60
2018-06-25T06:56:46.594Z,85.60
2018-06-25T06:59:15.420Z,85.40
2018-06-25T07:01:44.890Z,85.20
2018-06-25T07:04:14.017Z,85.20
2018-06-25T07:06:42.785Z,85.00
2018-06-25T07:09:13.046Z,84.50
2018-06-25T07:11:42.276Z,84.90
2018-06-25T07:14:11.022Z,84.80
2018-06-25T07:16:40.686Z,83.90
2018-06-25T07:19:09.721Z,84.70
2018-06-25T07:21:38.761Z,83.30
2018-06-25T07:24:07.424Z,83.10
2018-06-25T07:26:35.973Z,83.10
2018-06-25T07:29:04.708Z,83.20
2018-06-25T07:31:33.256Z,83.30
2018-06-25T07:34:01.741Z,83.50
2018-06-25T07:36:30.251Z,83.90
2018-06-25T07:38:58.701Z,83.80
2018-06-25T07:41:27.144Z,83.70
2018-06-25T07:43:55.748Z,82.90
2018-06-25T07:46:24.273Z,81.10
2018-06-25T07:48:53.055Z,82.50
2018-06-25T07:51:21.588Z,82.80
2018-06-25T07:53:50.142Z,81.90
2018-06-25T07:56:18.888Z,82.10
2018-06-25T07:58:47.476Z,82.10
2018-06-25T08:01:16.109Z,82.70
2018-06-25T08:03:44.817Z,83.00
2018-06-25T08:06:13.634Z,82.70
2018-06-25T08:08:42.059Z,82.00
2018-06-25T08:11:10.716Z,82.00
2018-06-25T08:13:39.191Z,81.70
2018-06-25T08:16:07.789Z,83.00
2018-06-25T08:18:36.369Z,82.00
2018-06-25T08:21:04.973Z,81.70
2018-06-25T08:23:33.420Z,79.50
2018-06-25T08:26:01.985Z,79.00
2018-06-25T08:28:30.436Z,79.60
2018-06-25T08:30:59.159Z,78.50
2018-06-25T08:33:27.548Z,78.60
2018-06-25T08:35:56.031Z,77.50
2018-06-25T08:38:24.472Z,76.60
2018-06-25T08:40:52.974Z,75.80
2018-06-25T08:43:21.682Z,76.30
2018-06-25T08:45:50.189Z,76.60
2018-06-25T08:48:18.617Z,77.10
2018-06-25T08:50:47.183Z,76.40
2018-06-25T08:53:15.678Z,76.20
2018-06-25T08:55:44.134Z,76.40
2018-06-25T08:58:12.623Z,76.30
2018-06-25T09:00:41.102Z,75.80
2018-06-25T09:03:09.640Z,74.90
2018-06-25T09:05:38.031Z,74.90
2018-06-25T09:08:06.490Z,74.40
2018-06-25T09:10:34.977Z,73.20
2018-06-25T09:13:03.590Z,71.60
2018-06-25T09:15:32.114Z,71.40
2018-06-25T09:18:00.418Z,71.40
2018-06-25T09:20:29.608Z,70.50
2018-06-25T09:22:58.975Z,69.50
2018-06-25T09:25:27.504Z,66.70
2018-06-25T09:28:00.355Z,63.90
2018-06-25T09:30:28.836Z,63.70
2018-06-25T09:32:57.394Z,63.80
2018-06-25T09:35:26.016Z,60.60
2018-06-25T09:37:55.707Z,59.70
2018-06-25T09:40:24.590Z,60.00
2018-06-25T09:42:53.259Z,60.20
2018-06-25T09:45:22.515Z,60.10
2018-06-25T09:47:52.032Z,59.60
2018-06-25T09:50:20.768Z,59.70
2018-06-25T09:52:49.392Z,59.80
2018-06-25T09:55:18.109Z,61.00
2018-06-25T09:57:46.921Z,62.60
2018-06-25T10:00:21.079Z,61.80
2018-06-25T10:02:49.852Z,59.30
2018-06-25T10:05:18.503Z,56.80
2018-06-25T10:07:47.768Z,54.90
2018-06-25T10:10:16.438Z,54.00
2018-06-25T10:12:45.848Z,53.60
2018-06-25T10:15:14.409Z,52.90
2018-06-25T10:17:43.239Z,52.60
2018-06-25T10:20:11.804Z,53.30
2018-06-25T10:22:40.446Z,53.90
2018-06-25T10:25:09.056Z,54.60
2018-06-25T10:27:37.719Z,55.20
2018-06-25T10:30:06.552Z,55.80
2018-06-25T10:32:35.429Z,57.30
2018-06-25T10:35:04.229Z,57.70
2018-06-25T10:37:32.874Z,56.90
2018-06-25T10:40:01.569Z,58.10
2018-06-25T10:42:30.126Z,59.50
2018-06-25T10:44:58.685Z,60.00
2018-06-25T10:47:27.411Z,60.30
2018-06-25T10:49:55.965Z,60.70
2018-06-25T10:52:24.667Z,60.20
2018-06-25T10:54:53.424Z,60.80
2018-06-25T10:57:22.114Z,60.60
2018-06-25T10:59:50.871Z,60.70
2018-06-25T11:02:19.288Z,61.00
2018-06-25T11:04:47.781Z,61.10
2018-06-25T11:07:16.485Z,61.60
2018-06-25T11:09:44.929Z,62.30
2018-06-25T11:12:13.390Z,61.90
2018-06-25T11:14:41.855Z,61.70
2018-06-25T11:17:10.416Z,61.40
2018-06-25T11:19:38.839Z,60.80
2018-06-25T11:22:07.391Z,59.80
2018-06-25T11:24:35.801Z,59.50
2018-06-25T11:27:04.433Z,59.50
2018-06-25T11:29:32.799Z,59.10
2018-06-25T11:32:01.202Z,58.70
2018-06-25T11:34:29.805Z,58.10
2018-06-25T11:36:58.188Z,57.70
2018-06-25T11:39:26.838Z,57.60
2018-06-25T11:41:55.370Z,57.10
2018-06-25T11:44:23.877Z,56.40
2018-06-25T11:46:52.678Z,55.40
2018-06-25T11:49:21.178Z,55.90
2018-06-25T11:51:49.698Z,55.70
2018-06-25T11:54:18.069Z,55.40
2018-06-25T11:56:47.054Z,55.20
2018-06-25T11:59:15.441Z,55.60
2018-06-25T12:01:44.215Z,55.00
2018-06-25T12:04:12.609Z,54.20
2018-06-25T12:06:41.046Z,53.90
2018-06-25T12:09:10.797Z,54.00
2018-06-25T12:11:39.339Z,53.30
2018-06-25T12:14:08.716Z,52.40
2018-06-25T12:16:37.662Z,53.30
2018-06-25T12:19:06.168Z,51.90
2018-06-25T12:21:34.558Z,51.80
2018-06-25T12:24:03.005Z,50.60
2018-06-25T12:26:32.540Z,50.20
2018-06-25T12:29:00.932Z,50.20
2018-06-25T12:31:29.370Z,50.50
2018-06-25T12:33:57.800Z,49.80
2018-06-25T12:36:26.221Z,49.40
2018-06-25T12:38:54.701Z,49.90
2018-06-25T12:41:23.435Z,49.40
2018-06-25T12:43:51.798Z,49.40
2018-06-25T12:46:20.261Z,49.30
2018-06-25T12:48:48.678Z,48.70
2018-06-25T12:51:17.092Z,48.10
2018-06-25T12:53:45.627Z,49.00
2018-06-25T12:56:14.046Z,48.60
2018-06-25T12:58:42.460Z,48.80
2018-06-25T13:01:11.118Z,48.70
2018-06-25T13:03:39.549Z,48.50
2018-06-25T13:06:07.965Z,47.90
2018-06-25T13:08:36.624Z,48.10
2018-06-25T13:11:05.078Z,48.10
2018-06-25T13:13:33.517Z,47.70
2018-06-25T13:16:01.979Z,47.40
2018-06-25T13:18:30.404Z,46.70
2018-06-25T13:20:58.892Z,46.50
2018-06-25T13:23:27.342Z,46.20
2018-06-25T13:25:55.899Z,47.20
2018-06-25T13:28:24.342Z,48.40
2018-06-25T13:30:52.883Z,48.20
2018-06-25T13:33:21.401Z,48.60
2018-06-25T13:35:49.913Z,48.50
2018-06-25T13:38:19.152Z,48.30
2018-06-25T13:40:47.471Z,48.10
2018-06-25T13:43:15.911Z,48.70
2018-06-25T13:45:44.826Z,48.50
2018-06-25T13:48:13.336Z,48.10
2018-06-25T13:50:41.809Z,48.20
2018-06-25T13:53:10.294Z,47.90
2018-06-25T13:55:38.911Z,47.30
2018-06-25T13:58:07.411Z,47.50
2018-06-25T14:00:36.085Z,47.30
2018-06-25T14:03:04.564Z,46.80
2018-06-25T14:05:33.015Z,47.70
2018-06-25T14:08:01.545Z,47.90
2018-06-25T14:10:30.041Z,48.10
2018-06-25T14:12:58.501Z,48.00
2018-06-25T14:15:26.985Z,48.20
2018-06-25T14:17:55.443Z,48.10
2018-06-25T14:20:24.156Z,48.10
2018-06-25T14:22:52.566Z,48.10
2018-06-25T14:28:19.241Z,48.40
2018-06-25T14:30:52.920Z,47.50
2018-06-25T14:33:27.278Z,47.30
2018-06-25T14:35:55.733Z,46.10
2018-06-25T14:38:26.955Z,46.20
2018-06-25T14:40:55.407Z,46.60
2018-06-25T14:43:23.861Z,46.30
2018-06-25T14:45:52.270Z,46.20
2018-06-25T14:48:20.984Z,46.10
2018-06-25T14:50:49.352Z,46.20
2018-06-25T14:53:17.904Z,46.60
2018-06-25T14:55:46.398Z,46.40
2018-06-25T14:58:14.856Z,46.00
2018-06-25T15:00:43.286Z,46.10
2018-06-25T15:03:11.716Z,46.60
2018-06-25T15:05:40.280Z,46.20
2018-06-25T15:08:08.839Z,46.20
2018-06-25T15:10:37.289Z,46.70
2018-06-25T15:13:05.832Z,46.70
2018-06-25T15:15:34.222Z,47.20
2018-06-25T15:18:02.676Z,47.10
2018-06-25T15:20:31.094Z,46.30
2018-06-25T15:22:59.487Z,46.50
2018-06-25T15:25:27.977Z,46.50
2018-06-25T15:27:56.423Z,47.10
2018-06-25T15:30:24.897Z,47.30
2018-06-25T15:32:53.328Z,47.80
2018-06-25T15:35:21.743Z,48.70
2018-06-25T15:37:50.236Z,49.20
2018-06-25T15:40:18.715Z,48.80
2018-06-25T15:42:47.137Z,48.80
2018-06-25T15:45:15.659Z,48.90
2018-06-25T15:47:44.146Z,49.40
2018-06-25T15:50:12.595Z,48.70
2018-06-25T15:52:41.052Z,48.60
2018-06-25T15:55:09.506Z,49.10
2018-06-25T15:57:38.909Z,49.60
2018-06-25T16:00:07.403Z,49.60
2018-06-25T16:02:35.789Z,49.60
2018-06-25T16:05:04.321Z,49.20
2018-06-25T16:07:32.762Z,48.80
2018-06-25T16:10:01.196Z,48.50
2018-06-25T16:12:30.579Z,48.60
2018-06-25T16:14:59.020Z,49.00
2018-06-25T16:17:27.461Z,48.50
2018-06-25T16:19:55.937Z,47.70
2018-06-25T16:22:24.397Z,47.90
2018-06-25T16:24:53.084Z,48.50
2018-06-25T16:27:21.581Z,47.60
2018-06-25T16:29:50.096Z,47.70
2018-06-25T16:32:18.584Z,47.80
2018-06-25T16:34:47.010Z,48.10
2018-06-25T16:37:15.550Z,47.60
2018-06-25T16:39:43.978Z,47.40
2018-06-25T16:42:12.477Z,48.10
2018-06-25T16:44:40.902Z,47.80
2018-06-25T16:47:09.515Z,47.10
2018-06-25T16:49:37.932Z,47.00
2018-06-25T16:52:06.570Z,47.30
2018-06-25T16:54:35.081Z,47.00
2018-06-25T16:57:03.556Z,47.00
2018-06-25T16:59:32.102Z,46.80
2018-06-25T17:02:01.386Z,47.00
2018-06-25T17:04:29.899Z,46.60
2018-06-25T17:06:58.326Z,46.50
2018-06-25T17:09:26.820Z,45.40
2018-06-25T17:11:55.248Z,43.90
2018-06-25T17:14:23.669Z,43.90
2018-06-25T17:16:52.167Z,44.50
2018-06-25T17:19:20.596Z,44.20
2018-06-25T17:21:49.014Z,44.30
2018-06-25T17:24:17.489Z,44.00
2018-06-25T17:26:45.921Z,44.00
2018-06-25T17:29:14.330Z,43.80
2018-06-25T17:31:42.860Z,43.80
2018-06-25T17:34:11.318Z,44.10
2018-06-25T17:36:39.750Z,44.40
2018-06-25T17:39:08.659Z,44.70
2018-06-25T17:41:37.095Z,45.10
2018-06-25T17:44:05.591Z,45.50
2018-06-25T17:46:34.178Z,45.80
2018-06-25T17:49:02.652Z,45.70
2018-06-25T17:51:31.290Z,45.90
2018-06-25T17:53:59.746Z,46.10
2018-06-25T17:56:28.252Z,46.20
2018-06-25T17:58:56.858Z,46.60
2018-06-25T18:01:25.388Z,46.20
2018-06-25T18:03:53.934Z,46.50
2018-06-25T18:06:22.502Z,46.50
2018-06-25T18:08:51.451Z,46.50
2018-06-25T18:11:19.929Z,46.30
2018-06-25T18:13:48.380Z,46.60
2018-06-25T18:16:16.809Z,46.80
2018-06-25T18:18:45.384Z,46.80
2018-06-25T18:21:13.927Z,47.20
2018-06-25T18:23:42.497Z,47.40
2018-06-25T18:26:10.967Z,47.50
2018-06-25T18:28:39.457Z,47.70
2018-06-25T18:31:08.093Z,47.90
2018-06-25T18:33:36.617Z,48.00
2018-06-25T18:36:05.122Z,48.10
2018-06-25T18:38:33.593Z,48.60
2018-06-25T18:41:02.081Z,48.20
2018-06-25T18:43:30.513Z,48.40
2018-06-25T18:45:58.951Z,48.50
2018-06-25T18:48:27.431Z,48.70
2018-06-25T18:50:55.970Z,48.70
2018-06-25T18:53:24.437Z,48.70
2018-06-25T18:55:52.906Z,48.70
2018-06-25T18:58:21.417Z,49.00
2018-06-25T19:00:50.841Z,49.10
2018-06-25T19:03:19.283Z,49.40
2018-06-25T19:05:47.828Z,49.80
2018-06-25T19:08:16.203Z,50.00
2018-06-25T19:10:44.662Z,50.20
2018-06-25T19:13:13.236Z,50.60
2018-06-25T19:15:41.716Z,50.90
2018-06-25T19:18:10.214Z,51.10
2018-06-25T19:20:38.682Z,51.30
2018-06-25T19:23:07.148Z,51.60
2018-06-25T19:25:35.872Z,51.90
2018-06-25T19:28:05.005Z,52.20
2018-06-25T19:30:33.461Z,52.60
2018-06-25T19:33:01.946Z,53.00
2018-06-25T19:35:30.406Z,53.30
2018-06-25T19:37:59.057Z,53.40
2018-06-25T19:40:28.179Z,53.80
2018-06-25T19:42:57.092Z,54.00
2018-06-25T19:45:25.625Z,54.10
2018-06-25T19:47:54.081Z,54.50
2018-06-25T19:50:22.680Z,54.70
2018-06-25T19:52:51.115Z,54.90
2018-06-25T19:55:19.612Z,55.10
2018-06-25T19:57:48.079Z,55.30
2018-06-25T20:00:16.572Z,55.70
2018-06-25T20:02:45.126Z,56.00
2018-06-25T20:05:14.569Z,56.10
2018-06-25T20:07:43.280Z,56.10
2018-06-25T20:10:12.049Z,56.20
2018-06-25T20:12:40.520Z,56.60
2018-06-25T20:15:09.143Z,56.70
2018-06-25T20:17:37.619Z,56.80
2018-06-25T20:20:07.006Z,57.40
2018-06-25T20:22:35.586Z,57.60
2018-06-25T20:25:04.976Z,57.70
2018-06-25T20:27:33.478Z,58.00
2018-06-25T20:30:01.920Z,58.30
2018-06-25T20:45:19.968Z,58.50
2018-06-25T20:47:48.473Z,58.60
2018-06-25T20:50:16.962Z,61.40
2018-06-25T20:52:45.466Z,61.80
2018-06-25T20:55:13.965Z,62.30
2018-06-25T20:57:42.432Z,62.80
2018-06-25T21:00:10.933Z,63.00
2018-06-25T21:02:39.415Z,63.80
2018-06-25T21:05:07.881Z,63.70
2018-06-25T21:07:36.319Z,64.10
2018-06-25T21:10:04.786Z,64.60
2018-06-25T21:12:33.284Z,65.20
2018-06-25T21:15:01.807Z,65.20
2018-06-25T21:17:30.393Z,65.60
2018-06-25T21:19:59.515Z,65.90
2018-06-25T21:22:28.064Z,66.40
2018-06-25T21:24:56.546Z,67.00
2018-06-25T21:27:25.001Z,67.40
2018-06-25T21:29:53.423Z,67.80
2018-06-25T21:32:21.844Z,68.00
2018-06-25T21:34:50.315Z,68.10
2018-06-25T21:37:18.754Z,68.20
2018-06-25T21:39:47.225Z,68.60
2018-06-25T21:42:15.804Z,69.10
2018-06-25T21:44:44.271Z,69.20
2018-06-25T21:47:12.789Z,69.60
2018-06-25T21:49:41.281Z,70.50
2018-06-25T21:52:09.765Z,71.10
2018-06-25T21:54:38.285Z,71.20
2018-06-25T21:57:06.754Z,71.70
2018-06-25T21:59:35.258Z,72.40
2018-06-25T22:02:03.760Z,73.40
2018-06-25T22:04:32.747Z,73.80
2018-06-25T22:07:01.246Z,74.70
2018-06-25T22:09:29.700Z,74.90
2018-06-25T22:11:58.135Z,75.40
2018-06-25T22:14:26.658Z,75.90
2018-06-25T22:16:55.161Z,76.10
2018-06-25T22:19:23.602Z,76.70
2018-06-25T22:21:52.054Z,77.00
2018-06-25T22:24:20.585Z,77.40
2018-06-25T22:26:49.015Z,77.40
2018-06-25T22:29:17.533Z,78.20
2018-06-25T22:31:46.002Z,78.50
2018-06-25T22:34:14.457Z,78.80
2018-06-25T22:36:42.925Z,79.50
2018-06-25T22:39:12.240Z,79.70
2018-06-25T22:41:41.445Z,80.20
2018-06-25T22:44:11.626Z,80.50
2018-06-25T22:46:41.012Z,80.60
2018-06-25T22:49:10.604Z,80.90
2018-06-25T22:51:39.035Z,81.10
2018-06-25T22:54:08.784Z,82.00
2018-06-25T22:56:37.233Z,82.40
2018-06-25T22:59:06.102Z,82.40
2018-06-25T23:01:34.557Z,83.10
2018-06-25T23:04:03.028Z,83.60
2018-06-25T23:06:31.505Z,83.70
2018-06-25T23:08:59.898Z,84.50
2018-06-25T23:11:28.359Z,84.50
2018-06-25T23:13:56.741Z,85.10
2018-06-25T23:16:25.209Z,85.60
2018-06-25T23:18:53.641Z,85.80
2018-06-25T23:21:22.064Z,86.10
2018-06-25T23:23:50.461Z,86.10
2018-06-25T23:26:18.894Z,86.60
2018-06-25T23:28:47.313Z,87.00
2018-06-25T23:31:15.741Z,87.60
2018-06-25T23:33:44.185Z,87.90
2018-06-25T23:36:12.590Z,88.50
2018-06-25T23:38:40.961Z,88.60
2018-06-25T23:41:09.436Z,89.00
2018-06-25T23:43:37.855Z,89.00
2018-06-25T23:46:06.301Z,89.40
2018-06-25T23:48:34.748Z,89.70
2018-06-25T23:51:03.179Z,90.00
2018-06-25T23:53:31.624Z,90.00
2018-06-25T23:56:00.093Z,90.20
2018-06-25T23:58:28.536Z,90.30
